PORT of AGATHONISI

Land: Greece Land: Greece (GR)
Latitud / Longitud: 37.452475° / 26.966° Visa på kartan Visa på kartan
Lokal tid:  UTC +3
UN/LOCODE: GRAGN

Fartygsnamn
Ankomst (UTC)
Ankomst (LT)
Avgång (UTC)
Avgång (LT)
Vessel Type: Passagerarfartyg  NISOS KALYMNOS 2014-09-16 13:28:00 2014-09-16 16:28:00 2014-09-16 13:48:00 2014-09-16 16:48:00
Vessel Type: Passagerarfartyg  ANNAEXPRESS 2014-09-15 12:41:00 2014-09-15 15:41:00 2014-09-16 05:04:00 2014-09-16 08:04:00
Vessel Type: Yachts och övrigt  BLUE WIND 2014-09-14 10:27:00 2014-09-14 13:27:00 2014-09-15 06:10:00 2014-09-15 09:10:00
Vessel Type: Passagerarfartyg  NISOS KALYMNOS 2014-09-14 14:25:00 2014-09-14 17:25:00 2014-09-14 14:38:00 2014-09-14 17:38:00
Vessel Type: Tankfartyg  MARIA 2014-09-12 13:43:00 2014-09-12 16:43:00 2014-09-13 08:28:00 2014-09-13 11:28:00
Vessel Type: Passagerarfartyg  NISOS KALYMNOS 2014-09-12 13:28:00 2014-09-12 16:28:00 2014-09-12 13:41:00 2014-09-12 16:41:00
Vessel Type: Passagerarfartyg  NISOS KALYMNOS 2014-09-12 08:43:00 2014-09-12 11:43:00 2014-09-12 09:00:00 2014-09-12 12:00:00
Vessel Type: Yachts och övrigt  ANDREA 2014-09-08 08:26:00 2014-09-08 11:26:00 2014-09-09 06:58:00 2014-09-09 09:58:00
Vessel Type: Passagerarfartyg  NISOS KALYMNOS 2014-09-05 14:05:00 2014-09-05 17:05:00 2014-09-05 14:30:00 2014-09-05 17:30:00
Vessel Type: Passagerarfartyg  NISOS KALYMNOS 2014-09-05 10:31:00 2014-09-05 13:31:00 2014-09-05 10:51:00 2014-09-05 13:51:00

Väntade ankomster


Fartygsnamn
Scheduled Arrival (UTC)
Schemalagd ankomst (lokal tid)
Beräknad ankomst (UTC)
Beräknad ankomst (lokal tid)
Inga uppgifter funna

Wind Forecast


    
Tid (UTC)
Hastighet
Direction
Temperature
2014-09-20 12:00:00 22 knots 343° 25°C
2014-09-20 15:00:00 24 knots 338° 25°C
2014-09-20 18:00:00 22 knots 349° 24°C
2014-09-20 21:00:00 16 knots 24°C
2014-09-21 00:00:00 13 knots 359° 23°C
2014-09-21 03:00:00 12 knots 359° 22°C
2014-09-21 06:00:00 8 knots 355° 22°C
2014-09-21 09:00:00 8 knots 308° 24°C
2014-09-21 12:00:00 12 knots 282° 24°C
2014-09-21 15:00:00 11 knots 280° 24°C
2014-09-21 18:00:00 9 knots 286° 24°C
2014-09-21 21:00:00 6 knots 300° 24°C
2014-09-22 00:00:00 5 knots 345° 24°C
2014-09-22 03:00:00 4 knots 352° 24°C
2014-09-22 06:00:00 3 knots 74° 23°C
2014-09-22 09:00:00 7 knots 294° 23°C

NO_PHOTO

No Photos for this port. Be the first to upload one!